Time;durP1;ratioP1;P1;durP2;ratioP2;P2;SDS_P1;SDS_P2;PMS_P1;PMS_P2;Temp;Humidity;BMP_temperature;BMP_pressure;BME280_temperature;BME280_humidity;BME280_pressure;Samples;Min_cycle;Max_cycle;Signal;HPM_P1;HPM_P2
2023/04/29 00:01:44;;;;;;;32.83;19.00;;;13.40;99.90;;;;;;5079175;28;20048;-75
2023/04/29 00:04:12;;;;;;;31.38;19.38;;;13.40;99.90;;;;;;5063384;28;20064;-75
2023/04/29 00:06:41;;;;;;;28.55;19.60;;;13.40;99.90;;;;;;5077652;28;20043;-74
2023/04/29 00:09:08;;;;;;;33.97;20.42;;;13.40;99.90;;;;;;5080293;28;20166;-75
2023/04/29 00:11:36;;;;;;;33.17;20.17;;;13.30;99.90;;;;;;5079268;28;20052;-74
2023/04/29 00:14:04;;;;;;;33.72;20.27;;;13.40;99.90;;;;;;5078648;28;20040;-75
2023/04/29 00:16:32;;;;;;;38.15;21.98;;;13.30;99.90;;;;;;5081079;28;20040;-75
2023/04/29 00:18:59;;;;;;;36.47;22.48;;;13.30;99.90;;;;;;5081127;28;20506;-75
2023/04/29 00:21:27;;;;;;;30.83;18.98;;;13.20;99.90;;;;;;5077251;28;20508;-75
2023/04/29 00:23:57;;;;;;;29.92;18.88;;;13.20;99.90;;;;;;5080098;28;20068;-76
2023/04/29 00:26:25;;;;;;;27.88;17.38;;;13.20;99.90;;;;;;5078339;28;20047;-76
2023/04/29 00:28:53;;;;;;;29.90;18.33;;;13.20;99.90;;;;;;5076023;28;20451;-76
2023/04/29 00:31:21;;;;;;;26.67;16.55;;;13.10;99.90;;;;;;5076317;28;20058;-74
2023/04/29 00:33:49;;;;;;;23.27;14.95;;;13.10;99.90;;;;;;5078560;28;20047;-74
2023/04/29 00:36:16;;;;;;;21.55;12.52;;;13.10;99.90;;;;;;5057649;28;20032;-73
2023/04/29 00:38:44;;;;;;;21.60;14.40;;;13.10;99.90;;;;;;5061030;28;20048;-74
2023/04/29 00:41:13;;;;;;;24.27;15.27;;;13.20;99.90;;;;;;5078089;28;20032;-75
2023/04/29 00:43:41;;;;;;;25.73;16.13;;;13.20;99.90;;;;;;5077913;28;20044;-75
2023/04/29 00:46:09;;;;;;;28.20;14.82;;;13.20;99.90;;;;;;5059480;28;20045;-75
2023/04/29 00:48:38;;;;;;;20.25;13.93;;;13.20;99.90;;;;;;5059820;28;20125;-76
2023/04/29 00:51:06;;;;;;;27.13;15.85;;;13.30;99.90;;;;;;5072446;28;20495;-75
2023/04/29 00:53:34;;;;;;;22.65;14.80;;;13.30;99.90;;;;;;5061403;28;20143;-74
2023/04/29 00:56:02;;;;;;;23.13;14.52;;;13.30;99.90;;;;;;5059606;28;20044;-76
2023/04/29 00:58:34;;;;;;;23.92;15.50;;;13.30;99.90;;;;;;5058347;28;20079;-74
2023/04/29 01:01:02;;;;;;;25.15;16.02;;;13.30;99.90;;;;;;5077669;28;20566;-74
2023/04/29 01:03:31;;;;;;;23.70;15.75;;;13.20;99.90;;;;;;5058971;28;20045;-74
2023/04/29 01:06:08;;;;;;;27.58;15.70;;;13.20;99.90;;;;;;5076368;28;20044;-73
2023/04/29 01:08:52;;;;;;;26.02;16.40;;;13.20;99.90;;;;;;5059485;28;20048;-74
2023/04/29 01:11:23;;;;;;;24.80;16.35;;;13.20;99.90;;;;;;5076484;28;20040;-73
2023/04/29 01:13:59;;;;;;;24.13;15.55;;;13.10;99.90;;;;;;5059809;28;20052;-74
2023/04/29 01:16:30;;;;;;;;;;;13.10;99.90;;;;;;5065484;28;20036;-75
2023/04/29 01:19:12;;;;;;;25.60;16.58;;;13.00;99.90;;;;;;5068376;28;19931;-74
2023/04/29 01:21:48;;;;;;;29.58;18.08;;;13.00;99.90;;;;;;5084653;28;20045;-73
2023/04/29 01:24:17;;;;;;;27.20;17.63;;;13.00;99.90;;;;;;5074962;28;20048;-74
2023/04/29 01:26:57;;;;;;;33.65;20.17;;;12.90;99.90;;;;;;5059890;28;20036;-74
2023/04/29 01:29:56;;;;;;;32.08;20.27;;;12.90;99.90;;;;;;5072265;28;20039;-75
2023/04/29 01:32:34;;;;;;;30.98;19.50;;;12.80;99.90;;;;;;5070917;28;20051;-74
2023/04/29 01:35:11;;;;;;;30.25;18.52;;;12.80;99.90;;;;;;5063913;28;20095;-74
2023/04/29 01:37:44;;;;;;;34.08;18.48;;;12.80;99.90;;;;;;5062255;28;20516;-75
2023/04/29 01:40:20;;;;;;;31.38;18.27;;;12.80;99.90;;;;;;5056851;28;20039;-72
2023/04/29 01:43:18;;;;;;;29.70;17.45;;;12.80;99.90;;;;;;5062132;28;20041;-74
2023/04/29 01:45:50;;;;;;;28.73;17.45;;;12.90;99.90;;;;;;5063660;28;20142;-75
2023/04/29 01:48:19;;;;;;;25.50;16.20;;;12.80;99.90;;;;;;5075060;28;20059;-74
2023/04/29 01:50:46;;;;;;;25.00;14.73;;;12.90;99.90;;;;;;5074419;28;20040;-77
2023/04/29 01:53:17;;;;;;;21.65;12.63;;;12.80;99.90;;;;;;5075590;28;20048;-74
2023/04/29 01:55:47;;;;;;;20.42;12.48;;;12.80;99.90;;;;;;5075705;28;20041;-75
2023/04/29 01:58:18;;;;;;;17.67;10.93;;;12.80;99.90;;;;;;5077972;28;20074;-74
2023/04/29 02:01:10;;;;;;;18.75;9.75;;;12.80;99.90;;;;;;5068127;28;20105;-74
2023/04/29 02:03:38;;;;;;;16.98;10.38;;;12.80;99.90;;;;;;5072295;28;20102;-74
2023/04/29 02:06:09;;;;;;;15.93;10.75;;;12.70;99.90;;;;;;5060830;28;20116;-74
2023/04/29 02:08:37;;;;;;;22.23;12.52;;;12.70;99.90;;;;;;5083005;28;20044;-73
2023/04/29 02:11:06;;;;;;;17.00;10.52;;;12.70;99.90;;;;;;5081922;28;20135;-76
2023/04/29 02:13:41;;;;;;;18.33;11.00;;;12.70;99.90;;;;;;5081149;28;20124;-73
2023/04/29 02:16:11;;;;;;;18.90;11.95;;;12.60;99.90;;;;;;5053896;28;20179;-74
2023/04/29 02:18:43;;;;;;;15.48;11.25;;;12.60;99.90;;;;;;5064933;28;20119;-74
2023/04/29 02:21:11;;;;;;;18.38;11.55;;;12.60;99.90;;;;;;5064478;28;20194;-74
2023/04/29 02:23:38;;;;;;;15.20;11.18;;;12.60;99.90;;;;;;5080290;28;20474;-73
2023/04/29 02:26:08;;;;;;;21.27;11.52;;;12.60;99.90;;;;;;5078217;28;20049;-74
2023/04/29 02:28:36;;;;;;;22.02;10.60;;;12.60;99.90;;;;;;5080808;28;20083;-75
2023/04/29 02:31:04;;;;;;;17.00;10.20;;;12.50;99.90;;;;;;5077409;28;20110;-75
2023/04/29 02:33:33;;;;;;;14.85;9.77;;;12.50;99.90;;;;;;5064460;28;20036;-74
2023/04/29 02:36:01;;;;;;;24.65;14.88;;;12.50;99.90;;;;;;5079471;28;20547;-74
2023/04/29 02:38:28;;;;;;;20.73;11.88;;;12.50;99.90;;;;;;5079133;28;20036;-75
2023/04/29 02:40:56;;;;;;;13.65;9.70;;;12.50;99.90;;;;;;5079102;28;20041;-73
2023/04/29 02:43:25;;;;;;;16.70;9.48;;;12.50;99.90;;;;;;5062228;28;20045;-74
2023/04/29 02:45:52;;;;;;;13.50;9.32;;;12.50;99.90;;;;;;5061683;28;20044;-75
2023/04/29 02:48:20;;;;;;;15.05;10.30;;;12.40;99.90;;;;;;5062011;28;20047;-75
2023/04/29 02:50:48;;;;;;;15.48;9.68;;;12.40;99.90;;;;;;5056725;28;20059;-74
2023/04/29 02:53:16;;;;;;;11.80;8.10;;;12.40;99.90;;;;;;5062207;28;20234;-75
2023/04/29 02:55:44;;;;;;;14.18;8.32;;;12.40;99.90;;;;;;5060945;28;20040;-75
2023/04/29 02:58:11;;;;;;;15.75;8.60;;;12.40;99.90;;;;;;5071741;28;20046;-74
2023/04/29 03:00:41;;;;;;;12.93;7.75;;;12.40;99.90;;;;;;5084161;28;20147;-74
2023/04/29 03:03:08;;;;;;;10.52;7.70;;;12.40;99.90;;;;;;5079138;28;20040;-75
2023/04/29 03:05:36;;;;;;;15.68;9.45;;;12.50;99.90;;;;;;5061991;28;20043;-75
2023/04/29 03:08:04;;;;;;;12.63;8.10;;;12.50;99.90;;;;;;5062988;28;20051;-75
2023/04/29 03:10:32;;;;;;;15.35;9.10;;;12.40;99.90;;;;;;5062103;28;20240;-74
2023/04/29 03:13:00;;;;;;;12.82;8.25;;;12.40;99.90;;;;;;5062369;28;20104;-75
2023/04/29 03:15:28;;;;;;;13.70;8.20;;;12.40;99.90;;;;;;5060807;28;20048;-74
2023/04/29 03:18:00;;;;;;;13.80;7.63;;;12.40;99.90;;;;;;5080315;28;20051;-75
2023/04/29 03:20:28;;;;;;;11.25;8.07;;;12.40;99.90;;;;;;5057781;28;20586;-73
2023/04/29 03:22:56;;;;;;;13.23;8.63;;;12.40;99.90;;;;;;5060570;28;20044;-75
2023/04/29 03:25:23;;;;;;;13.95;8.40;;;12.30;99.90;;;;;;5060860;28;20051;-74
2023/04/29 03:27:52;;;;;;;17.17;9.43;;;12.30;99.90;;;;;;5061956;28;20042;-76
2023/04/29 03:30:19;;;;;;;15.65;8.82;;;12.30;99.90;;;;;;5059428;28;20052;-74
2023/04/29 03:32:51;;;;;;;16.83;10.15;;;12.30;99.90;;;;;;5059994;28;20044;-74
2023/04/29 03:35:21;;;;;;;15.85;10.70;;;12.20;99.90;;;;;;5058247;28;20048;-74
2023/04/29 03:38:12;;;;;;;18.30;10.65;;;12.20;99.90;;;;;;5039168;28;20061;-75
2023/04/29 03:40:40;;;;;;;16.65;10.57;;;12.20;99.90;;;;;;5058243;28;20055;-74
2023/04/29 03:43:08;;;;;;;19.52;11.32;;;12.20;99.90;;;;;;5060574;28;20496;-74
2023/04/29 03:45:36;;;;;;;18.23;11.05;;;12.20;99.90;;;;;;5060077;28;20048;-75
2023/04/29 03:48:06;;;;;;;20.85;12.98;;;12.20;99.90;;;;;;5062282;28;20131;-75
2023/04/29 03:50:37;;;;;;;22.50;12.60;;;12.30;99.90;;;;;;5059033;28;20055;-75
2023/04/29 03:53:04;;;;;;;23.40;13.82;;;12.30;99.90;;;;;;5078046;28;20079;-75
2023/04/29 03:55:32;;;;;;;21.02;13.43;;;12.20;99.90;;;;;;5075238;28;20044;-74
2023/04/29 03:58:00;;;;;;;19.17;10.50;;;12.30;99.90;;;;;;5061576;28;20398;-74
2023/04/29 04:00:30;;;;;;;18.20;11.48;;;12.30;99.90;;;;;;5066251;28;20039;-75
2023/04/29 04:03:00;;;;;;;20.10;9.43;;;12.30;99.90;;;;;;5060898;28;20131;-74
2023/04/29 04:05:27;;;;;;;15.18;9.73;;;12.30;99.90;;;;;;5060542;28;20052;-76
2023/04/29 04:08:01;;;;;;;17.60;9.10;;;12.30;99.90;;;;;;5063787;28;20477;-75
2023/04/29 04:11:01;;;;;;;13.00;8.48;;;12.40;99.90;;;;;;5069240;28;20049;-74
2023/04/29 04:13:36;;;;;;;13.18;8.57;;;12.40;99.90;;;;;;5059563;28;20583;-75
2023/04/29 04:16:05;;;;;;;15.38;9.20;;;12.60;99.90;;;;;;5057626;28;20048;-74
2023/04/29 04:18:32;;;;;;;18.98;9.38;;;12.80;99.90;;;;;;5077965;28;20557;-73
2023/04/29 04:21:06;;;;;;;12.77;9.32;;;12.90;99.90;;;;;;5059575;28;20042;-75
2023/04/29 04:23:39;;;;;;;16.00;9.30;;;13.00;99.90;;;;;;5058523;28;20056;-74
2023/04/29 04:26:08;;;;;;;14.15;7.95;;;13.10;99.90;;;;;;5059424;28;20461;-74
2023/04/29 04:29:08;;;;;;;30.40;10.07;;;13.00;99.90;;;;;;5065438;28;20040;-74
2023/04/29 04:31:48;;;;;;;13.52;7.78;;;12.90;99.90;;;;;;5060033;28;20052;-74
2023/04/29 04:34:18;;;;;;;14.10;8.48;;;12.80;99.90;;;;;;5061266;28;20068;-74
2023/04/29 04:36:49;;;;;;;12.48;7.55;;;12.70;99.90;;;;;;5060907;28;20044;-76
2023/04/29 04:39:17;;;;;;;14.57;9.02;;;12.60;99.90;;;;;;5063999;28;20215;-75
2023/04/29 04:41:45;;;;;;;11.90;8.35;;;12.70;99.90;;;;;;5061112;28;20102;-74
2023/04/29 04:44:14;;;;;;;13.68;8.60;;;12.70;99.90;;;;;;5061057;28;20121;-75
2023/04/29 04:47:01;;;;;;;16.58;9.65;;;12.70;99.90;;;;;;5061023;28;20081;-74
2023/04/29 04:49:48;;;;;;;14.77;9.75;;;12.70;99.90;;;;;;5075142;28;20059;-75
2023/04/29 04:52:16;;;;;;;18.10;11.05;;;12.60;99.90;;;;;;5055101;28;20114;-74
2023/04/29 04:54:51;;;;;;;20.33;11.88;;;12.60;99.90;;;;;;5060843;28;20044;-74
2023/04/29 04:57:23;;;;;;;19.67;12.45;;;12.60;99.90;;;;;;5066496;28;20033;-74
2023/04/29 04:59:51;;;;;;;21.67;12.50;;;12.60;99.90;;;;;;5065123;28;20558;-75
2023/04/29 05:02:18;;;;;;;17.23;11.25;;;12.60;99.90;;;;;;5058789;28;20052;-74
2023/04/29 05:04:46;;;;;;;17.23;10.93;;;12.60;99.90;;;;;;5060518;28;20053;-74
2023/04/29 05:07:16;;;;;;;16.65;11.30;;;12.50;99.90;;;;;;5059889;28;20041;-74
2023/04/29 05:10:07;;;;;;;24.17;11.05;;;12.60;99.90;;;;;;5077768;28;20048;-74
2023/04/29 05:12:40;;;;;;;17.63;10.55;;;12.60;99.90;;;;;;5058377;28;20048;-75
2023/04/29 05:15:09;;;;;;;19.02;11.23;;;12.70;99.90;;;;;;5057703;28;20071;-75
2023/04/29 05:17:37;;;;;;;21.50;11.02;;;12.70;99.90;;;;;;5057608;28;20147;-75
2023/04/29 05:20:06;;;;;;;34.45;15.60;;;12.80;99.90;;;;;;5080602;28;20111;-75
2023/04/29 05:22:34;;;;;;;26.38;13.77;;;12.80;99.90;;;;;;5062816;28;20066;-74
2023/04/29 05:25:02;;;;;;;16.88;11.13;;;12.80;99.90;;;;;;5063854;28;20040;-76
2023/04/29 05:27:33;;;;;;;18.67;11.48;;;12.90;99.90;;;;;;5063326;28;20055;-75
2023/04/29 05:30:01;;;;;;;16.92;10.10;;;12.90;99.90;;;;;;5062325;28;20052;-75
2023/04/29 05:32:28;;;;;;;17.63;9.68;;;12.80;99.90;;;;;;5063053;28;20075;-74
2023/04/29 05:34:56;;;;;;;16.40;10.40;;;12.80;99.90;;;;;;5065618;28;20048;-74
2023/04/29 05:37:29;;;;;;;20.95;10.25;;;12.90;99.90;;;;;;5065300;28;20540;-75
2023/04/29 05:40:18;;;;;;;17.50;11.30;;;12.90;99.90;;;;;;5060297;28;20128;-75
2023/04/29 05:42:48;;;;;;;19.98;12.48;;;12.90;99.90;;;;;;5064240;28;20412;-76
2023/04/29 05:45:16;;;;;;;23.52;14.65;;;13.00;99.90;;;;;;5060861;28;20032;-77
2023/04/29 05:47:43;;;;;;;26.67;16.38;;;13.00;99.90;;;;;;5060842;28;20054;-76
2023/04/29 05:50:11;;;;;;;25.52;15.35;;;13.00;99.90;;;;;;5061729;28;20068;-74
2023/04/29 05:52:40;;;;;;;25.83;16.27;;;13.00;99.90;;;;;;5062115;28;20511;-75
2023/04/29 05:55:07;;;;;;;24.55;16.10;;;13.00;99.90;;;;;;5058286;28;20067;-75
2023/04/29 05:57:35;;;;;;;31.10;21.17;;;13.00;99.90;;;;;;5063342;28;20097;-74
2023/04/29 06:00:05;;;;;;;58.33;36.15;;;13.10;99.90;;;;;;5061901;28;20044;-74
2023/04/29 06:02:41;;;;;;;78.90;46.83;;;13.10;99.90;;;;;;5080807;28;20404;-75
2023/04/29 06:05:11;;;;;;;44.70;28.70;;;13.20;99.90;;;;;;5077388;28;20044;-76
2023/04/29 06:08:01;;;;;;;37.55;23.58;;;13.30;99.90;;;;;;5071756;28;20047;-74
2023/04/29 06:10:46;;;;;;;30.98;19.55;;;13.50;99.90;;;;;;5063228;28;20050;-75
2023/04/29 06:13:13;;;;;;;30.45;20.65;;;13.50;99.90;;;;;;5062668;28;20040;-75
2023/04/29 06:15:43;;;;;;;32.20;19.95;;;13.60;99.90;;;;;;5077734;28;20097;-76
2023/04/29 06:18:10;;;;;;;30.58;20.33;;;13.60;99.90;;;;;;5077331;28;20033;-75
2023/04/29 06:20:38;;;;;;;29.85;19.25;;;13.80;99.90;;;;;;5061922;28;20040;-75
2023/04/29 06:23:06;;;;;;;26.10;17.13;;;13.90;99.90;;;;;;5062765;28;20050;-75
2023/04/29 06:25:33;;;;;;;36.63;21.10;;;14.10;99.90;;;;;;5086218;28;20514;-73
2023/04/29 06:28:07;;;;;;;26.52;17.40;;;14.20;99.90;;;;;;5068314;28;20040;-74
2023/04/29 06:30:34;;;;;;;27.65;17.05;;;14.40;99.90;;;;;;5058543;28;20408;-75
2023/04/29 06:33:03;;;;;;;25.27;15.40;;;14.50;99.90;;;;;;5078383;28;20083;-75
2023/04/29 06:35:31;;;;;;;24.23;15.80;;;14.70;99.90;;;;;;5078961;28;20155;-75
2023/04/29 06:37:58;;;;;;;26.58;17.60;;;14.90;99.90;;;;;;5087584;28;20138;-75
2023/04/29 06:40:38;;;;;;;23.77;16.02;;;15.10;99.90;;;;;;5076738;28;20032;-73
2023/04/29 06:43:31;;;;;;;21.65;14.85;;;15.10;99.90;;;;;;5082187;28;20052;-74
2023/04/29 06:46:16;;;;;;;22.65;14.48;;;15.10;99.90;;;;;;5076351;28;20131;-73
2023/04/29 06:48:53;;;;;;;22.95;14.50;;;15.10;99.90;;;;;;5076298;28;20398;-72
2023/04/29 06:51:23;;;;;;;19.70;14.13;;;15.30;99.90;;;;;;5060224;28;20044;-73
2023/04/29 06:53:51;;;;;;;18.70;12.90;;;15.40;99.90;;;;;;5060157;28;20508;-74
2023/04/29 06:56:21;;;;;;;25.42;16.13;;;15.50;99.90;;;;;;5062332;28;20489;-74
2023/04/29 06:58:49;;;;;;;23.95;15.52;;;15.60;99.90;;;;;;5079687;28;20059;-73
2023/04/29 07:01:19;;;;;;;25.05;15.00;;;15.80;99.90;;;;;;5059161;28;20048;-74
2023/04/29 07:03:46;;;;;;;19.83;11.55;;;16.00;99.90;;;;;;5062456;28;20078;-73
2023/04/29 07:06:15;;;;;;;12.90;8.32;;;16.20;99.90;;;;;;5078921;28;20058;-74
2023/04/29 07:08:42;;;;;;;12.35;8.18;;;16.20;99.90;;;;;;5081071;28;20052;-75
2023/04/29 07:11:10;;;;;;;10.18;5.68;;;16.20;99.90;;;;;;5063582;28;20039;-74
2023/04/29 07:13:38;;;;;;;9.57;6.32;;;16.40;99.90;;;;;;5064946;28;20061;-73
2023/04/29 07:16:06;;;;;;;11.68;8.15;;;16.60;99.90;;;;;;5091588;28;20036;-74
2023/04/29 07:18:33;;;;;;;13.98;7.90;;;16.70;99.90;;;;;;5091367;28;20043;-73
2023/04/29 07:21:02;;;;;;;14.18;9.05;;;16.90;99.90;;;;;;5086525;28;20067;-73
2023/04/29 07:23:32;;;;;;;13.68;8.52;;;17.00;97.50;;;;;;5067046;28;20036;-75
2023/04/29 07:25:59;;;;;;;13.48;9.30;;;17.00;96.70;;;;;;5064653;28;20392;-74
2023/04/29 07:28:26;;;;;;;15.80;9.68;;;17.20;98.10;;;;;;5062041;28;20047;-74
2023/04/29 07:30:54;;;;;;;15.70;10.23;;;17.60;94.80;;;;;;5064827;28;20056;-76
2023/04/29 07:33:23;;;;;;;20.75;12.95;;;17.90;90.90;;;;;;5086230;28;20098;-74
2023/04/29 07:35:50;;;;;;;19.40;12.80;;;18.00;90.30;;;;;;5082857;28;20070;-73
2023/04/29 07:38:18;;;;;;;16.48;11.40;;;18.10;91.70;;;;;;5065671;28;20067;-75
2023/04/29 07:40:46;;;;;;;25.50;10.80;;;18.60;90.00;;;;;;5080413;28;20119;-73
2023/04/29 07:43:15;;;;;;;18.33;11.43;;;18.80;84.30;;;;;;5061339;28;20044;-73
2023/04/29 07:45:42;;;;;;;16.35;10.40;;;18.90;81.80;;;;;;5062628;28;20138;-74
2023/04/29 07:48:10;;;;;;;20.15;11.90;;;18.80;80.20;;;;;;5062973;28;20052;-72
2023/04/29 07:50:37;;;;;;;19.75;12.15;;;19.00;78.30;;;;;;5060151;28;20060;-72
2023/04/29 07:53:05;;;;;;;20.42;10.25;;;19.20;77.60;;;;;;5062942;28;20063;-73
2023/04/29 07:55:33;;;;;;;16.98;10.82;;;19.60;70.40;;;;;;5080729;28;20063;-73
2023/04/29 07:58:03;;;;;;;17.73;9.80;;;20.00;67.50;;;;;;5060416;28;20052;-74
2023/04/29 08:00:30;;;;;;;14.30;9.10;;;20.20;65.30;;;;;;5058619;28;20090;-74
2023/04/29 08:02:58;;;;;;;14.82;8.23;;;20.30;63.40;;;;;;5056975;28;20063;-73
2023/04/29 08:05:26;;;;;;;17.10;11.20;;;20.20;62.10;;;;;;5059651;28;20044;-74
2023/04/29 08:07:54;;;;;;;16.52;11.48;;;19.90;61.60;;;;;;5077438;28;20045;-73
2023/04/29 08:10:22;;;;;;;19.75;10.82;;;19.80;62.10;;;;;;5060015;28;20044;-73
2023/04/29 08:12:50;;;;;;;18.38;10.43;;;19.70;62.20;;;;;;5077445;28;20040;-72
2023/04/29 08:15:19;;;;;;;19.23;9.93;;;19.70;62.10;;;;;;5079330;28;20032;-73
2023/04/29 08:17:46;;;;;;;17.13;10.88;;;19.80;61.60;;;;;;5079578;28;20499;-74
2023/04/29 08:20:14;;;;;;;18.38;10.82;;;19.80;61.80;;;;;;5075603;28;20036;-74
2023/04/29 08:22:42;;;;;;;25.42;14.43;;;20.20;61.00;;;;;;5076421;28;20082;-74
2023/04/29 08:25:11;;;;;;;26.77;15.52;;;20.40;61.70;;;;;;5058510;28;20413;-73
2023/04/29 08:27:38;;;;;;;23.90;13.25;;;20.60;63.90;;;;;;5078468;28;20044;-74
2023/04/29 08:30:07;;;;;;;27.98;15.38;;;21.00;63.90;;;;;;5077836;28;20069;-74
2023/04/29 08:32:36;;;;;;;25.20;16.13;;;21.30;62.40;;;;;;5075870;28;20085;-75
2023/04/29 08:35:04;;;;;;;21.60;13.95;;;21.40;60.00;;;;;;5059769;28;20480;-75
2023/04/29 08:37:31;;;;;;;30.67;21.95;;;21.30;59.70;;;;;;5077365;28;20064;-74
2023/04/29 08:39:58;;;;;;;24.90;15.60;;;21.10;59.00;;;;;;5078359;28;20083;-75
2023/04/29 08:42:35;;;;;;;27.63;17.33;;;20.70;58.90;;;;;;5077160;28;20036;-74
2023/04/29 08:45:03;;;;;;;23.13;14.13;;;20.70;58.80;;;;;;5076401;28;20052;-74
2023/04/29 08:47:31;;;;;;;21.67;14.32;;;20.80;58.00;;;;;;5078120;28;20504;-75
2023/04/29 08:50:04;;;;;;;26.60;14.98;;;20.90;57.00;;;;;;5078928;28;20040;-73
2023/04/29 08:52:32;;;;;;;32.70;19.35;;;21.10;56.90;;;;;;5059333;28;20385;-75
2023/04/29 08:55:01;;;;;;;28.25;17.45;;;21.30;56.80;;;;;;5082070;28;20043;-78
2023/04/29 08:57:31;;;;;;;33.90;20.35;;;21.50;56.90;;;;;;5082311;28;20054;-73
2023/04/29 09:00:01;;;;;;;23.83;16.73;;;21.70;55.70;;;;;;5064679;28;20048;-73
2023/04/29 09:02:29;;;;;;;27.05;16.38;;;21.80;55.10;;;;;;5079598;28;20048;-74
2023/04/29 09:05:09;;;;;;;16.65;10.63;;;22.00;54.60;;;;;;5081717;28;20424;-74
2023/04/29 09:07:38;;;;;;;19.33;11.02;;;22.10;51.40;;;;;;5081788;28;20066;-74
2023/04/29 09:10:07;;;;;;;17.70;10.20;;;22.20;51.70;;;;;;5082203;28;20036;-75
2023/04/29 09:12:34;;;;;;;18.45;10.35;;;22.20;51.70;;;;;;5080098;28;20032;-75
2023/04/29 09:15:04;;;;;;;17.95;11.18;;;22.20;51.60;;;;;;5082764;28;20044;-75
2023/04/29 09:17:42;;;;;;;22.98;11.02;;;22.20;51.10;;;;;;5082123;28;20123;-77
2023/04/29 09:20:30;;;;;;;19.67;10.55;;;22.20;52.50;;;;;;5080370;28;20043;-76
2023/04/29 09:23:00;;;;;;;24.20;13.20;;;21.80;55.70;;;;;;5082060;28;20139;-77
2023/04/29 09:25:28;;;;;;;27.50;16.30;;;21.70;57.20;;;;;;5061803;28;20474;-84
2023/04/29 09:27:57;;;;;;;21.67;13.52;;;21.70;57.70;;;;;;5062324;28;20131;-74
2023/04/29 09:30:25;;;;;;;21.80;12.30;;;21.70;57.10;;;;;;5080073;28;20066;-74
2023/04/29 09:33:06;;;;;;;18.05;12.88;;;21.70;58.70;;;;;;5082140;28;20050;-72
2023/04/29 09:35:36;;;;;;;22.02;11.20;;;21.60;59.70;;;;;;5067432;28;20048;-75
2023/04/29 09:38:13;;;;;;;22.63;11.57;;;21.60;61.00;;;;;;5088025;28;20119;-75
2023/04/29 09:40:41;;;;;;;20.33;10.80;;;21.90;61.70;;;;;;5079201;28;20404;-75
2023/04/29 09:43:14;;;;;;;20.05;10.98;;;22.10;60.30;;;;;;5079613;28;20085;-75
2023/04/29 09:45:43;;;;;;;22.15;12.93;;;22.30;58.90;;;;;;5078401;28;20059;-75
2023/04/29 09:48:12;;;;;;;33.33;13.27;;;22.30;58.90;;;;;;5079556;28;20051;-74
2023/04/29 09:50:42;;;;;;;19.80;11.52;;;22.10;57.80;;;;;;5081253;28;20043;-75
2023/04/29 09:53:11;;;;;;;20.30;10.73;;;22.00;57.90;;;;;;5088205;28;20041;-74
2023/04/29 09:55:58;;;;;;;15.57;8.98;;;21.80;54.70;;;;;;5084109;28;20057;-74
2023/04/29 09:58:30;;;;;;;15.23;9.40;;;21.60;54.60;;;;;;5081100;28;20044;-75
2023/04/29 10:01:01;;;;;;;15.50;8.60;;;21.60;55.00;;;;;;5081561;28;20064;-73
2023/04/29 10:03:33;;;;;;;13.02;8.73;;;21.90;53.90;;;;;;5063322;28;20037;-76
2023/04/29 10:06:03;;;;;;;15.90;10.63;;;22.10;53.00;;;;;;5082164;28;20044;-76
2023/04/29 10:08:31;;;;;;;14.75;8.68;;;22.10;52.40;;;;;;5082239;28;20134;-76
2023/04/29 10:11:01;;;;;;;18.23;8.57;;;22.20;52.60;;;;;;5066105;28;20055;-74
2023/04/29 10:13:30;;;;;;;16.75;7.82;;;22.10;52.40;;;;;;5086589;28;20044;-75
2023/04/29 10:16:09;;;;;;;12.68;7.38;;;22.00;50.00;;;;;;5064250;28;20054;-77
2023/04/29 10:18:40;;;;;;;11.07;7.50;;;22.00;50.80;;;;;;5081278;28;20119;-74
2023/04/29 10:21:09;;;;;;;12.48;7.47;;;22.10;51.30;;;;;;5078402;28;20117;-74
2023/04/29 10:23:39;;;;;;;19.23;9.25;;;22.00;50.60;;;;;;5081195;28;20043;-75
2023/04/29 10:26:11;;;;;;;16.42;8.40;;;21.90;50.60;;;;;;5080853;28;20036;-75
2023/04/29 10:28:42;;;;;;;15.80;8.82;;;21.70;51.20;;;;;;5080304;28;20151;-75
2023/04/29 10:31:10;;;;;;;13.45;8.18;;;21.50;51.90;;;;;;5059764;28;20045;-77
2023/04/29 10:33:40;;;;;;;18.23;10.32;;;21.60;52.70;;;;;;5079674;28;20040;-75
2023/04/29 10:36:10;;;;;;;15.98;9.35;;;21.80;52.90;;;;;;5080404;28;20036;-75
2023/04/29 10:38:40;;;;;;;17.15;8.43;;;21.70;52.80;;;;;;5080419;28;20044;-75
2023/04/29 10:41:15;;;;;;;19.85;9.52;;;21.70;52.90;;;;;;5081393;28;20043;-76
2023/04/29 10:43:42;;;;;;;22.15;11.73;;;21.60;53.20;;;;;;5060217;28;20469;-74
2023/04/29 10:46:21;;;;;;;18.98;10.25;;;21.80;53.20;;;;;;5080204;28;20408;-74
2023/04/29 10:48:51;;;;;;;18.52;10.88;;;22.00;52.60;;;;;;5079833;28;20519;-76
2023/04/29 10:51:34;;;;;;;17.23;9.88;;;22.10;52.00;;;;;;5062535;28;20040;-74
2023/04/29 10:54:03;;;;;;;16.40;10.40;;;22.30;52.10;;;;;;5061119;28;20051;-74
2023/04/29 10:56:39;;;;;;;18.40;10.25;;;22.30;51.50;;;;;;5078559;28;20564;-75
2023/04/29 10:59:09;;;;;;;;;;;22.30;51.00;;;;;;5080054;28;20050;-74
2023/04/29 11:01:43;;;;;;;19.58;10.20;;;22.40;50.30;;;;;;5077516;28;20014;-74
2023/04/29 11:04:11;;;;;;;19.27;9.95;;;22.60;50.20;;;;;;5079504;28;20085;-73
2023/04/29 11:06:42;;;;;;;12.20;7.97;;;22.80;49.60;;;;;;5079853;28;20052;-74
2023/04/29 11:09:13;;;;;;;14.13;7.80;;;22.90;47.80;;;;;;5078637;28;20046;-75
2023/04/29 11:11:42;;;;;;;17.38;8.70;;;22.70;47.00;;;;;;5079250;28;20121;-74
2023/04/29 11:14:11;;;;;;;17.92;10.65;;;22.60;48.20;;;;;;5060544;28;20055;-73
2023/04/29 11:16:46;;;;;;;18.17;10.48;;;22.40;51.30;;;;;;5078811;28;20484;-74
2023/04/29 11:19:16;;;;;;;20.15;10.00;;;22.10;52.60;;;;;;5060959;28;20054;-74
2023/04/29 11:21:45;;;;;;;19.73;10.35;;;21.90;54.10;;;;;;5078806;28;20060;-74
2023/04/29 11:24:14;;;;;;;14.52;9.70;;;21.60;55.00;;;;;;5078877;28;20488;-75
2023/04/29 11:26:43;;;;;;;14.77;9.55;;;21.30;55.20;;;;;;5078395;28;20067;-73
2023/04/29 11:29:10;;;;;;;16.92;8.98;;;21.20;56.00;;;;;;5079726;28;20037;-75
2023/04/29 11:31:38;;;;;;;18.05;10.70;;;21.20;56.70;;;;;;5080895;28;20041;-75
2023/04/29 11:34:07;;;;;;;16.73;11.13;;;21.10;58.30;;;;;;5079798;28;20052;-74
2023/04/29 11:36:35;;;;;;;21.38;11.68;;;21.00;61.00;;;;;;5077784;28;20105;-73
2023/04/29 11:39:04;;;;;;;19.38;10.75;;;20.70;65.00;;;;;;5078776;28;20554;-74
2023/04/29 11:41:32;;;;;;;15.05;10.10;;;20.30;72.10;;;;;;5078736;28;20060;-75
2023/04/29 11:44:02;;;;;;;19.33;12.38;;;19.80;99.90;;;;;;5079626;28;20044;-74
2023/04/29 11:46:32;;;;;;;18.77;12.57;;;19.40;99.90;;;;;;5078224;28;20139;-74
2023/04/29 11:49:00;;;;;;;15.68;11.13;;;19.20;99.90;;;;;;5076641;28;20080;-73
2023/04/29 11:51:28;;;;;;;20.48;13.02;;;19.10;99.90;;;;;;5077756;28;20036;-74
2023/04/29 11:53:56;;;;;;;29.55;11.68;;;19.00;99.90;;;;;;5078481;28;20055;-74
2023/04/29 11:56:25;;;;;;;17.98;13.05;;;19.20;99.90;;;;;;5079323;28;20036;-74
2023/04/29 11:58:57;;;;;;;23.25;13.32;;;19.20;99.90;;;;;;5078732;28;20105;-73
2023/04/29 12:01:26;;;;;;;17.83;11.95;;;19.40;99.90;;;;;;5060766;28;20085;-74
2023/04/29 12:03:59;;;;;;;21.02;12.63;;;19.60;99.90;;;;;;5078596;28;20127;-75
2023/04/29 12:06:29;;;;;;;20.27;13.07;;;19.80;99.90;;;;;;5058316;28;20040;-74
2023/04/29 12:08:59;;;;;;;20.55;12.45;;;20.00;99.90;;;;;;5079144;28;20041;-75
2023/04/29 12:11:28;;;;;;;17.55;10.98;;;19.90;99.90;;;;;;5058060;28;20048;-78
2023/04/29 12:13:56;;;;;;;19.88;12.02;;;19.70;99.90;;;;;;5079401;28;20041;-73
2023/04/29 12:16:24;;;;;;;18.00;13.70;;;19.60;99.90;;;;;;5078212;28;20067;-74
2023/04/29 12:18:53;;;;;;;20.23;12.90;;;19.60;99.90;;;;;;5078221;28;20055;-75
2023/04/29 12:21:21;;;;;;;18.23;12.27;;;19.50;99.90;;;;;;5078490;28;20117;-74
2023/04/29 12:23:50;;;;;;;19.02;12.43;;;19.40;99.90;;;;;;5076177;28;20104;-74
2023/04/29 12:26:19;;;;;;;19.77;12.50;;;19.30;99.90;;;;;;5079130;28;20040;-73
2023/04/29 12:28:49;;;;;;;17.52;11.68;;;19.40;99.90;;;;;;5079568;28;20040;-74
2023/04/29 12:31:16;;;;;;;20.33;13.00;;;19.50;99.90;;;;;;5082995;28;20074;-73
2023/04/29 12:33:44;;;;;;;14.85;10.70;;;19.50;99.90;;;;;;5089414;28;20040;-75
2023/04/29 12:36:18;;;;;;;15.02;10.05;;;19.50;99.90;;;;;;5065615;28;20054;-74
2023/04/29 12:38:47;;;;;;;19.02;12.23;;;19.50;99.90;;;;;;5083458;28;20047;-74
2023/04/29 12:41:16;;;;;;;17.45;10.60;;;19.60;99.90;;;;;;5090166;28;20106;-74
2023/04/29 12:43:43;;;;;;;15.82;10.27;;;19.50;99.90;;;;;;5076736;28;20058;-75
2023/04/29 12:46:13;;;;;;;18.95;10.93;;;19.40;99.90;;;;;;5076867;28;20484;-75
2023/04/29 12:48:42;;;;;;;13.52;9.40;;;19.50;99.90;;;;;;5077136;28;20047;-75